createdAt,value
2018-09-05T00:02:43.269Z,100.00
2018-09-05T00:05:45.487Z,100.00
2018-09-05T00:08:47.656Z,100.00
2018-09-05T00:11:49.853Z,100.00
2018-09-05T00:14:52.298Z,100.00
2018-09-05T00:17:54.462Z,100.00
2018-09-05T00:20:56.680Z,100.00
2018-09-05T00:23:58.917Z,100.00
2018-09-05T00:27:01.110Z,100.00
2018-09-05T00:30:03.391Z,100.00
2018-09-05T00:33:05.409Z,100.00
2018-09-05T00:36:07.963Z,100.00
2018-09-05T00:39:10.302Z,100.00
2018-09-05T00:42:12.560Z,100.00
2018-09-05T00:45:14.801Z,100.00
2018-09-05T00:48:16.968Z,100.00
2018-09-05T00:51:19.262Z,100.00
2018-09-05T00:54:21.441Z,100.00
2018-09-05T00:57:23.889Z,100.00
2018-09-05T01:00:26.063Z,100.00
2018-09-05T01:03:28.431Z,100.00
2018-09-05T01:06:30.673Z,100.00
2018-09-05T01:09:32.852Z,100.00
2018-09-05T01:12:35.059Z,100.00
2018-09-05T01:15:37.365Z,100.00
2018-09-05T01:18:39.643Z,100.00
2018-09-05T01:21:41.981Z,100.00
2018-09-05T01:24:44.342Z,100.00
2018-09-05T01:27:46.956Z,100.00
2018-09-05T01:30:49.238Z,100.00
2018-09-05T01:33:51.567Z,100.00
2018-09-05T01:36:53.795Z,100.00
2018-09-05T01:39:56.196Z,100.00
2018-09-05T01:42:58.447Z,100.00
2018-09-05T01:46:00.706Z,100.00
2018-09-05T01:49:02.989Z,100.00
2018-09-05T01:52:05.323Z,100.00
2018-09-05T01:55:07.592Z,100.00
2018-09-05T01:58:09.780Z,100.00
2018-09-05T02:01:12.013Z,100.00
2018-09-05T02:04:14.160Z,100.00
2018-09-05T02:07:16.376Z,100.00
2018-09-05T02:10:18.576Z,100.00
2018-09-05T02:13:20.837Z,100.00
2018-09-05T02:16:22.986Z,100.00
2018-09-05T02:19:25.258Z,100.00
2018-09-05T02:22:27.436Z,100.00
2018-09-05T02:25:29.706Z,100.00
2018-09-05T02:28:31.861Z,100.00
2018-09-05T02:31:34.064Z,100.00
2018-09-05T02:34:36.349Z,100.00
2018-09-05T02:37:38.629Z,100.00
2018-09-05T02:40:40.914Z,100.00
2018-09-05T02:43:48.857Z,100.00
2018-09-05T02:46:51.676Z,100.00
2018-09-05T02:49:53.954Z,100.00
2018-09-05T02:52:56.229Z,100.00
2018-09-05T02:56:01.784Z,100.00
2018-09-05T02:59:04.080Z,100.00
2018-09-05T03:02:06.286Z,100.00
2018-09-05T03:05:08.502Z,100.00
2018-09-05T03:08:10.706Z,100.00
2018-09-05T03:11:12.883Z,100.00
2018-09-05T03:14:15.073Z,100.00
2018-09-05T03:17:17.501Z,100.00
2018-09-05T03:20:19.686Z,100.00
2018-09-05T03:23:27.600Z,100.00
2018-09-05T03:26:29.816Z,100.00
2018-09-05T03:29:33.081Z,100.00
2018-09-05T03:32:35.574Z,100.00
2018-09-05T03:35:37.593Z,100.00
2018-09-05T03:38:39.730Z,100.00
2018-09-05T03:41:42.053Z,100.00
2018-09-05T03:44:44.322Z,100.00
2018-09-05T03:47:46.499Z,100.00
2018-09-05T03:50:53.222Z,100.00
2018-09-05T03:53:55.631Z,100.00
2018-09-05T03:56:58.156Z,100.00
2018-09-05T04:00:00.297Z,100.00
2018-09-05T04:03:03.522Z,100.00
2018-09-05T04:06:05.654Z,100.00
2018-09-05T04:09:07.844Z,100.00
2018-09-05T04:12:10.330Z,100.00
2018-09-05T04:15:12.677Z,100.00
2018-09-05T04:18:14.963Z,100.00
2018-09-05T04:21:17.109Z,100.00
2018-09-05T04:24:19.308Z,100.00
2018-09-05T04:27:21.569Z,100.00
2018-09-05T04:30:23.880Z,100.00
2018-09-05T04:33:26.049Z,100.00
2018-09-05T04:36:28.289Z,100.00
2018-09-05T04:39:30.560Z,100.00
2018-09-05T04:42:33.049Z,100.00
2018-09-05T04:45:35.271Z,100.00
2018-09-05T04:48:37.609Z,100.00
2018-09-05T04:51:39.838Z,100.00
2018-09-05T04:54:42.025Z,100.00
2018-09-05T04:57:44.306Z,100.00
2018-09-05T05:00:46.546Z,100.00
2018-09-05T05:03:48.742Z,100.00
2018-09-05T05:06:51.010Z,100.00
2018-09-05T05:09:53.185Z,100.00
2018-09-05T05:12:55.448Z,100.00
2018-09-05T05:15:57.661Z,100.00
2018-09-05T05:18:59.936Z,100.00
2018-09-05T05:22:02.121Z,100.00
2018-09-05T05:25:04.362Z,100.00
2018-09-05T05:28:06.779Z,100.00
2018-09-05T05:31:09.240Z,100.00
2018-09-05T05:34:11.405Z,99.99
2018-09-05T05:37:13.648Z,96.67
2018-09-05T05:40:15.860Z,93.91
2018-09-05T05:43:18.088Z,90.62
2018-09-05T05:46:20.417Z,88.45
2018-09-05T05:49:22.642Z,86.61
2018-09-05T05:52:24.744Z,84.13
2018-09-05T05:55:26.959Z,82.10
2018-09-05T05:58:29.299Z,80.02
2018-09-05T06:01:31.489Z,79.45
2018-09-05T06:04:33.649Z,76.74
2018-09-05T06:07:35.788Z,75.92
2018-09-05T06:10:38.141Z,74.32
2018-09-05T06:13:40.448Z,73.12
2018-09-05T06:16:42.868Z,71.77
2018-09-05T06:19:45.204Z,71.88
2018-09-05T06:22:48.792Z,72.73
2018-09-05T06:25:50.977Z,72.51
2018-09-05T06:28:53.101Z,71.91
2018-09-05T06:31:55.267Z,71.88
2018-09-05T06:34:57.413Z,71.80
2018-09-05T06:37:59.635Z,71.06
2018-09-05T06:41:01.873Z,68.81
2018-09-05T06:44:04.095Z,68.54
2018-09-05T06:47:06.375Z,67.99
2018-09-05T06:50:08.563Z,66.66
2018-09-05T06:53:10.821Z,66.69
2018-09-05T06:56:13.000Z,66.89
2018-09-05T06:59:15.386Z,64.97
2018-09-05T07:02:17.642Z,65.44
2018-09-05T07:05:19.935Z,65.21
2018-09-05T07:08:22.168Z,65.59
2018-09-05T07:11:24.301Z,67.38
2018-09-05T07:14:26.548Z,67.42
2018-09-05T07:17:28.714Z,67.92
2018-09-05T07:20:30.893Z,68.74
2018-09-05T07:23:33.213Z,66.00
2018-09-05T07:26:35.906Z,66.70
2018-09-05T07:29:38.077Z,66.55
2018-09-05T07:32:40.315Z,65.78
2018-09-05T07:35:42.593Z,67.07
2018-09-05T07:38:44.673Z,65.22
2018-09-05T07:41:46.858Z,64.53
2018-09-05T07:44:50.067Z,64.86
2018-09-05T07:47:52.470Z,66.93
2018-09-05T07:50:54.794Z,67.63
2018-09-05T07:53:56.940Z,69.13
2018-09-05T07:56:59.124Z,74.10
2018-09-05T08:00:01.340Z,74.85
2018-09-05T08:03:03.647Z,74.93
2018-09-05T08:06:05.793Z,73.17
2018-09-05T08:09:09.812Z,74.78
2018-09-05T08:12:12.018Z,76.35
2018-09-05T08:15:14.210Z,77.17
2018-09-05T08:18:16.366Z,76.52
2018-09-05T08:21:18.661Z,75.39
2018-09-05T08:24:20.942Z,74.48
2018-09-05T08:27:23.531Z,72.66
2018-09-05T08:30:25.661Z,69.99
2018-09-05T08:33:27.888Z,72.29
2018-09-05T08:36:30.333Z,71.47
2018-09-05T08:39:32.295Z,70.66
2018-09-05T08:42:35.453Z,69.82
2018-09-05T08:45:37.804Z,69.66
2018-09-05T08:48:39.903Z,68.79
2018-09-05T08:51:41.985Z,67.84
2018-09-05T08:54:44.245Z,68.00
2018-09-05T08:57:46.432Z,69.93
2018-09-05T09:00:48.606Z,69.28
2018-09-05T09:03:50.768Z,68.84
2018-09-05T09:06:52.908Z,67.07
2018-09-05T09:09:55.422Z,63.62
2018-09-05T09:12:57.758Z,63.28
2018-09-05T09:15:59.998Z,65.08
2018-09-05T09:19:02.188Z,66.06
2018-09-05T09:22:04.526Z,66.42
2018-09-05T09:25:06.841Z,65.70
2018-09-05T09:28:09.077Z,65.80
2018-09-05T09:31:11.264Z,63.85
2018-09-05T09:34:13.494Z,63.86
2018-09-05T09:37:15.736Z,65.59
2018-09-05T09:40:17.928Z,65.65
2018-09-05T09:43:20.217Z,64.74
2018-09-05T09:46:22.391Z,64.42
2018-09-05T09:49:24.734Z,62.17
2018-09-05T09:52:26.888Z,60.67
2018-09-05T09:55:29.104Z,61.01
2018-09-05T09:58:31.349Z,60.17
2018-09-05T10:01:39.249Z,59.95
2018-09-05T10:04:47.225Z,58.82
2018-09-05T10:07:55.103Z,58.25
2018-09-05T10:11:06.653Z,57.48
2018-09-05T10:14:11.129Z,56.09
2018-09-05T10:17:18.938Z,56.55
2018-09-05T10:20:21.225Z,56.70
2018-09-05T10:23:23.501Z,58.07
2018-09-05T10:26:25.636Z,58.73
2018-09-05T10:29:27.892Z,55.28
2018-09-05T10:32:30.512Z,54.78
2018-09-05T10:35:33.078Z,55.99
2018-09-05T10:38:35.443Z,56.85
2018-09-05T10:41:37.690Z,57.70
2018-09-05T10:44:40.026Z,58.58
2018-09-05T10:47:42.259Z,56.06
2018-09-05T10:50:44.479Z,53.06
2018-09-05T10:53:46.711Z,51.65
2018-09-05T10:56:48.927Z,50.53
2018-09-05T10:59:51.116Z,50.14
2018-09-05T11:02:53.686Z,51.75
2018-09-05T11:05:56.889Z,51.44
2018-09-05T11:08:59.202Z,51.36
2018-09-05T11:12:01.435Z,51.82
2018-09-05T11:15:03.819Z,52.73
2018-09-05T11:18:06.084Z,52.22
2018-09-05T11:21:08.335Z,52.78
2018-09-05T11:24:10.683Z,52.31
2018-09-05T11:27:12.930Z,53.66
2018-09-05T11:30:15.156Z,51.22
2018-09-05T11:33:17.525Z,50.54
2018-09-05T11:36:19.773Z,50.87
2018-09-05T11:39:22.001Z,49.22
2018-09-05T11:42:24.233Z,46.81
2018-09-05T11:45:26.533Z,47.10
2018-09-05T11:48:28.785Z,46.08
2018-09-05T11:51:31.196Z,46.00
2018-09-05T11:54:33.438Z,45.79
2018-09-05T11:57:35.713Z,46.18
2018-09-05T12:00:37.971Z,46.75
2018-09-05T12:03:40.228Z,46.34
2018-09-05T12:06:42.489Z,46.26
2018-09-05T12:09:44.648Z,45.94
2018-09-05T12:12:46.882Z,45.62
2018-09-05T12:15:49.388Z,46.50
2018-09-05T12:18:51.616Z,47.36
2018-09-05T12:21:53.965Z,50.30
2018-09-05T12:24:56.257Z,50.85
2018-09-05T12:27:59.453Z,51.39
2018-09-05T12:31:01.727Z,51.69
2018-09-05T12:34:04.070Z,51.41
2018-09-05T12:37:06.337Z,51.68
2018-09-05T12:40:08.949Z,51.35
2018-09-05T12:43:11.225Z,50.83
2018-09-05T12:46:13.439Z,50.95
2018-09-05T12:49:15.697Z,49.99
2018-09-05T12:52:18.032Z,49.81
2018-09-05T12:55:20.562Z,48.92
2018-09-05T12:58:22.828Z,50.10
2018-09-05T13:01:25.072Z,50.55
2018-09-05T13:04:27.405Z,50.26
2018-09-05T13:07:29.605Z,49.45
2018-09-05T13:10:32.089Z,50.19
2018-09-05T13:13:34.452Z,49.94
2018-09-05T13:16:36.828Z,49.97
2018-09-05T13:19:39.080Z,49.02
2018-09-05T13:22:41.256Z,49.68
2018-09-05T13:25:43.570Z,48.83
2018-09-05T13:28:45.921Z,48.39
2018-09-05T13:31:48.141Z,47.34
2018-09-05T13:34:50.360Z,50.11
2018-09-05T13:37:52.650Z,47.92
2018-09-05T13:40:54.984Z,47.31
2018-09-05T13:43:57.218Z,43.63
2018-09-05T13:46:59.465Z,42.96
2018-09-05T13:50:02.119Z,41.01
2018-09-05T13:53:04.591Z,40.59
2018-09-05T13:56:06.932Z,39.91
2018-09-05T13:59:09.128Z,40.48
2018-09-05T14:02:11.282Z,39.69
2018-09-05T14:05:14.049Z,39.99
2018-09-05T14:08:16.216Z,39.14
2018-09-05T14:11:18.400Z,39.46
2018-09-05T14:14:20.598Z,41.22
2018-09-05T14:17:22.896Z,40.81
2018-09-05T14:20:25.255Z,40.55
2018-09-05T14:23:27.534Z,40.55
2018-09-05T14:26:29.881Z,40.51
2018-09-05T14:29:32.064Z,40.28
2018-09-05T14:32:34.228Z,40.43
2018-09-05T14:35:36.428Z,41.12
2018-09-05T14:38:38.842Z,40.30
2018-09-05T14:41:41.294Z,40.61
2018-09-05T14:44:43.637Z,42.08
2018-09-05T14:47:45.922Z,42.76
2018-09-05T14:50:48.216Z,41.61
2018-09-05T14:53:50.496Z,40.65
2018-09-05T14:56:52.689Z,39.85
2018-09-05T14:59:54.946Z,38.54
2018-09-05T15:02:57.209Z,38.69
2018-09-05T15:05:59.477Z,38.42
2018-09-05T15:09:01.801Z,39.34
2018-09-05T15:12:04.093Z,38.56
2018-09-05T15:15:06.500Z,40.84
2018-09-05T15:18:08.649Z,40.10
2018-09-05T15:21:10.927Z,40.11
2018-09-05T15:24:13.262Z,40.42
2018-09-05T15:27:15.761Z,38.91
2018-09-05T15:30:18.093Z,39.33
2018-09-05T15:33:20.312Z,39.46
2018-09-05T15:36:22.618Z,39.67
2018-09-05T15:39:24.996Z,40.35
2018-09-05T15:42:27.452Z,41.61
2018-09-05T15:45:29.784Z,42.73
2018-09-05T15:48:31.984Z,41.72
2018-09-05T15:51:35.146Z,41.33
2018-09-05T15:54:37.402Z,40.77
2018-09-05T15:57:39.645Z,40.97
2018-09-05T16:00:42.924Z,41.43
2018-09-05T16:03:45.254Z,42.03
2018-09-05T16:06:47.479Z,41.23
2018-09-05T16:09:49.750Z,41.70
2018-09-05T16:12:52.067Z,43.06
2018-09-05T16:15:54.290Z,41.45
2018-09-05T16:18:56.629Z,44.21
2018-09-05T16:21:58.971Z,44.80
2018-09-05T16:25:02.212Z,46.25
2018-09-05T16:28:04.669Z,46.82
2018-09-05T16:31:06.980Z,47.87
2018-09-05T16:34:09.548Z,46.21
2018-09-05T16:37:11.808Z,45.48
2018-09-05T16:40:14.088Z,46.71
2018-09-05T16:43:16.369Z,46.49
2018-09-05T16:46:18.762Z,45.96
2018-09-05T16:49:21.017Z,44.64
2018-09-05T16:52:28.757Z,44.53
2018-09-05T16:55:31.127Z,46.34
2018-09-05T16:58:33.409Z,46.89
2018-09-05T17:01:35.585Z,47.49
2018-09-05T17:04:37.880Z,46.35
2018-09-05T17:07:40.277Z,48.03
2018-09-05T17:10:42.496Z,48.53
2018-09-05T17:13:44.656Z,48.57
2018-09-05T17:16:46.874Z,49.93
2018-09-05T17:19:49.167Z,49.46
2018-09-05T17:22:51.417Z,51.54
2018-09-05T17:25:53.751Z,49.43
2018-09-05T17:34:23.429Z,56.35
2018-09-05T17:37:25.898Z,57.59
2018-09-05T17:40:28.208Z,58.59
2018-09-05T17:43:30.495Z,60.71
2018-09-05T17:46:32.660Z,61.23
2018-09-05T17:49:35.039Z,62.92
2018-09-05T17:52:37.279Z,64.07
2018-09-05T17:55:39.593Z,65.04
2018-09-05T17:58:41.914Z,66.10
2018-09-05T18:01:44.265Z,67.21
2018-09-05T18:04:46.433Z,67.81
2018-09-05T18:07:48.725Z,68.02
2018-09-05T18:10:51.016Z,68.22
2018-09-05T18:13:53.254Z,69.38
2018-09-05T18:16:55.546Z,69.63
2018-09-05T18:19:57.820Z,69.06
2018-09-05T18:23:00.104Z,69.32
2018-09-05T18:26:03.468Z,69.98
2018-09-05T18:29:05.684Z,70.45
2018-09-05T18:33:32.565Z,70.72
2018-09-05T18:36:34.877Z,71.80
2018-09-05T18:39:37.293Z,73.16
2018-09-05T18:42:39.583Z,73.24
2018-09-05T18:45:41.732Z,74.81
2018-09-05T18:48:45.195Z,73.55
2018-09-05T18:51:47.760Z,73.87
2018-09-05T18:54:49.972Z,75.31
2018-09-05T18:57:52.171Z,75.25
2018-09-05T19:00:54.368Z,75.77
2018-09-05T19:03:56.551Z,76.06
2018-09-05T19:06:58.885Z,76.79
2018-09-05T19:10:01.090Z,77.43
2018-09-05T19:13:03.312Z,75.87
2018-09-05T19:16:05.568Z,77.38
2018-09-05T19:19:07.929Z,77.02
2018-09-05T19:22:10.289Z,78.59
2018-09-05T19:25:12.685Z,78.54
2018-09-05T19:28:14.962Z,79.10
2018-09-05T19:31:17.309Z,79.86
2018-09-05T19:34:19.685Z,80.42
2018-09-05T19:37:22.886Z,80.94
2018-09-05T19:40:25.121Z,80.47
2018-09-05T19:43:27.380Z,80.00
2018-09-05T19:46:29.676Z,80.07
2018-09-05T19:49:31.894Z,81.33
2018-09-05T19:52:34.449Z,81.02
2018-09-05T19:55:36.713Z,82.37
2018-09-05T19:58:39.152Z,83.17
2018-09-05T20:01:41.551Z,82.65
2018-09-05T20:04:43.766Z,84.06
2018-09-05T20:07:46.025Z,83.98
2018-09-05T20:10:48.218Z,85.00
2018-09-05T20:13:50.404Z,84.94
2018-09-05T20:16:52.608Z,84.07
2018-09-05T20:19:54.968Z,84.57
2018-09-05T20:22:57.229Z,84.26
2018-09-05T20:25:59.458Z,85.03
2018-09-05T20:29:01.754Z,84.48
2018-09-05T20:32:04.050Z,85.15
2018-09-05T20:35:06.272Z,85.53
2018-09-05T20:38:08.558Z,85.99
2018-09-05T20:41:10.782Z,85.41
2018-09-05T20:44:12.973Z,85.60
2018-09-05T20:47:15.273Z,86.64
2018-09-05T20:50:17.503Z,87.04
2018-09-05T20:53:19.782Z,87.05
2018-09-05T20:56:22.074Z,87.11
2018-09-05T20:59:24.380Z,86.91
2018-09-05T21:02:26.617Z,86.67
2018-09-05T21:05:28.877Z,86.37
2018-09-05T21:08:31.136Z,86.65
2018-09-05T21:11:33.323Z,87.48
2018-09-05T21:14:35.584Z,87.59
2018-09-05T21:17:37.899Z,88.25
2018-09-05T21:20:40.152Z,88.13
2018-09-05T21:23:42.429Z,89.09
2018-09-05T21:26:44.729Z,89.22
2018-09-05T21:29:46.928Z,89.55
2018-09-05T21:36:27.940Z,90.24
2018-09-05T21:39:30.304Z,91.02
2018-09-05T21:42:32.629Z,91.50
2018-09-05T21:45:35.114Z,90.72
2018-09-05T21:48:37.460Z,91.05
2018-09-05T21:51:39.785Z,90.95
2018-09-05T21:54:42.072Z,91.10
2018-09-05T21:57:44.419Z,91.52
2018-09-05T22:00:47.385Z,91.65
2018-09-05T22:03:51.116Z,92.15
2018-09-05T22:06:53.443Z,92.64
2018-09-05T22:09:55.733Z,93.13
2018-09-05T22:12:58.135Z,92.34
2018-09-05T22:16:00.456Z,93.08
2018-09-05T22:19:02.844Z,93.72
2018-09-05T22:22:05.168Z,94.63
2018-09-05T22:25:07.661Z,94.74
2018-09-05T22:28:09.907Z,94.78
2018-09-05T22:31:12.186Z,95.58
2018-09-05T22:34:14.437Z,95.57
2018-09-05T22:37:16.756Z,94.96
2018-09-05T22:40:19.088Z,94.24
2018-09-05T22:43:34.300Z,94.80
2018-09-05T22:46:48.067Z,94.72
2018-09-05T22:50:12.391Z,95.84
2018-09-05T22:53:38.364Z,96.49
2018-09-05T22:56:59.246Z,97.03
2018-09-05T23:00:13.499Z,97.50
2018-09-05T23:03:32.779Z,96.55
2018-09-05T23:07:46.022Z,96.53
2018-09-05T23:10:59.829Z,96.21
2018-09-05T23:14:13.558Z,96.42
2018-09-05T23:17:27.332Z,96.17
2018-09-05T23:20:42.005Z,97.13
2018-09-05T23:23:51.337Z,97.60
2018-09-05T23:26:53.643Z,97.12
2018-09-05T23:29:55.938Z,97.51
2018-09-05T23:32:58.199Z,97.46
2018-09-05T23:36:01.219Z,97.43
2018-09-05T23:39:04.604Z,97.82
2018-09-05T23:42:07.066Z,99.11
2018-09-05T23:45:09.418Z,100.00
2018-09-05T23:48:11.683Z,100.00
2018-09-05T23:51:13.910Z,100.00
2018-09-05T23:54:16.235Z,100.00
2018-09-05T23:57:18.554Z,100.00
